createdAt,value
2019-02-02T00:00:43.205Z,88.00
2019-02-02T00:03:12.886Z,88.00
2019-02-02T00:05:42.200Z,87.90
2019-02-02T00:08:11.545Z,88.00
2019-02-02T00:10:41.838Z,87.80
2019-02-02T00:13:11.481Z,87.80
2019-02-02T00:15:40.782Z,87.80
2019-02-02T00:18:10.646Z,87.80
2019-02-02T00:20:40.928Z,87.80
2019-02-02T00:23:10.326Z,87.90
2019-02-02T00:25:39.635Z,87.80
2019-02-02T00:28:08.970Z,87.80
2019-02-02T00:30:38.278Z,87.80
2019-02-02T00:33:07.621Z,88.00
2019-02-02T00:35:36.937Z,87.80
2019-02-02T00:38:06.580Z,88.00
2019-02-02T00:40:35.878Z,88.00
2019-02-02T00:43:05.463Z,88.00
2019-02-02T00:45:34.773Z,88.10
2019-02-02T00:48:04.115Z,88.10
2019-02-02T00:50:33.421Z,87.80
2019-02-02T00:53:02.845Z,87.80
2019-02-02T00:55:32.142Z,87.90
2019-02-02T00:58:01.482Z,87.80
2019-02-02T01:00:30.789Z,87.80
2019-02-02T01:03:00.125Z,87.90
2019-02-02T01:05:29.433Z,88.00
2019-02-02T01:07:58.793Z,88.10
2019-02-02T01:10:39.226Z,88.20
2019-02-02T01:13:09.582Z,88.20
2019-02-02T01:15:39.096Z,88.30
2019-02-02T01:18:08.477Z,88.40
2019-02-02T01:20:37.789Z,88.40
2019-02-02T01:23:07.132Z,88.40
2019-02-02T01:25:36.442Z,88.40
2019-02-02T01:28:05.849Z,88.40
2019-02-02T01:30:35.186Z,88.40
2019-02-02T01:33:04.525Z,88.50
2019-02-02T01:35:33.842Z,88.40
2019-02-02T01:38:03.188Z,88.50
2019-02-02T01:40:32.488Z,88.50
2019-02-02T01:43:01.842Z,88.60
2019-02-02T01:45:31.147Z,88.70
2019-02-02T01:48:00.494Z,88.90
2019-02-02T01:50:29.865Z,88.80
2019-02-02T01:52:59.212Z,89.00
2019-02-02T01:55:28.522Z,89.20
2019-02-02T01:57:57.864Z,89.40
2019-02-02T02:00:34.385Z,90.10
2019-02-02T02:03:03.808Z,89.80
2019-02-02T02:05:33.120Z,90.00
2019-02-02T02:08:02.468Z,90.20
2019-02-02T02:10:31.838Z,90.30
2019-02-02T02:13:01.176Z,90.30
2019-02-02T02:15:30.486Z,90.30
2019-02-02T02:17:59.857Z,90.40
2019-02-02T02:20:29.180Z,90.60
2019-02-02T02:22:58.538Z,90.60
2019-02-02T02:25:27.846Z,90.80
2019-02-02T02:27:57.189Z,90.80
2019-02-02T02:30:26.496Z,91.00
2019-02-02T02:32:55.909Z,91.00
2019-02-02T02:35:25.221Z,91.10
2019-02-02T02:37:54.588Z,91.10
2019-02-02T02:40:24.336Z,91.30
2019-02-02T02:42:54.213Z,91.30
2019-02-02T02:45:23.556Z,91.40
2019-02-02T02:47:52.856Z,91.50
2019-02-02T02:50:22.381Z,91.60
2019-02-02T02:52:51.690Z,91.70
2019-02-02T02:55:21.044Z,91.80
2019-02-02T02:57:50.346Z,91.80
2019-02-02T03:00:27.613Z,91.90
2019-02-02T03:02:58.989Z,92.00
2019-02-02T03:05:28.412Z,92.10
2019-02-02T03:07:57.712Z,92.20
2019-02-02T03:10:27.062Z,92.20
2019-02-02T03:12:56.379Z,92.40
2019-02-02T03:15:25.721Z,92.50
2019-02-02T03:17:55.043Z,92.90
2019-02-02T03:20:24.386Z,92.60
2019-02-02T03:22:53.744Z,92.80
2019-02-02T03:25:24.880Z,92.80
2019-02-02T03:27:54.193Z,93.00
2019-02-02T03:30:23.534Z,93.00
2019-02-02T03:32:52.857Z,93.10
2019-02-02T03:35:23.519Z,93.10
2019-02-02T03:37:52.902Z,93.20
2019-02-02T03:40:23.392Z,93.30
2019-02-02T03:42:52.716Z,93.20
2019-02-02T03:45:23.900Z,93.30
2019-02-02T03:47:53.934Z,93.40
2019-02-02T03:50:23.289Z,93.50
2019-02-02T03:52:52.595Z,93.40
2019-02-02T03:55:21.944Z,93.40
2019-02-02T03:57:51.242Z,93.40
2019-02-02T04:00:21.929Z,93.50
2019-02-02T04:02:51.238Z,93.50
2019-02-02T04:05:26.191Z,93.60
2019-02-02T04:07:55.498Z,93.60
2019-02-02T04:10:24.848Z,93.70
2019-02-02T04:12:54.161Z,93.70
2019-02-02T04:15:23.520Z,93.70
2019-02-02T04:17:52.808Z,93.60
2019-02-02T04:20:23.204Z,93.60
2019-02-02T04:22:52.527Z,93.60
2019-02-02T04:25:22.405Z,93.60
2019-02-02T04:27:51.708Z,93.60
2019-02-02T04:30:26.089Z,93.60
2019-02-02T04:32:55.403Z,93.60
2019-02-02T04:35:24.748Z,93.60
2019-02-02T04:37:54.045Z,93.60
2019-02-02T04:40:23.392Z,93.70
2019-02-02T04:42:52.706Z,93.80
2019-02-02T04:45:22.056Z,93.80
2019-02-02T04:47:51.362Z,93.80
2019-02-02T04:50:21.336Z,93.70
2019-02-02T04:52:50.646Z,93.70
2019-02-02T04:55:20.158Z,93.70
2019-02-02T04:57:49.462Z,93.70
2019-02-02T05:00:23.468Z,93.70
2019-02-02T05:02:52.783Z,93.70
2019-02-02T05:05:23.178Z,93.70
2019-02-02T05:07:52.487Z,93.80
2019-02-02T05:10:23.374Z,93.70
2019-02-02T05:12:52.741Z,93.70
2019-02-02T05:15:22.093Z,93.70
2019-02-02T05:17:51.401Z,93.70
2019-02-02T05:20:21.121Z,93.70
2019-02-02T05:22:50.501Z,93.60
2019-02-02T05:25:19.849Z,93.60
2019-02-02T05:27:49.154Z,93.60
2019-02-02T05:30:23.885Z,93.70
2019-02-02T05:32:53.198Z,93.70
2019-02-02T05:35:22.532Z,93.70
2019-02-02T05:37:51.849Z,93.80
2019-02-02T05:40:22.032Z,93.80
2019-02-02T05:42:51.347Z,93.80
2019-02-02T05:45:22.911Z,93.90
2019-02-02T05:47:53.186Z,93.90
2019-02-02T05:50:23.483Z,93.90
2019-02-02T05:52:52.964Z,94.00
2019-02-02T05:55:23.167Z,93.90
2019-02-02T05:57:52.470Z,94.00
2019-02-02T06:00:39.833Z,93.90
2019-02-02T06:03:09.140Z,93.90
2019-02-02T06:05:38.501Z,93.90
2019-02-02T06:08:07.808Z,93.90
2019-02-02T06:10:37.175Z,94.00
2019-02-02T06:13:06.526Z,94.00
2019-02-02T06:15:35.854Z,94.00
2019-02-02T06:18:05.206Z,94.10
2019-02-02T06:20:34.528Z,94.10
2019-02-02T06:23:03.883Z,94.20
2019-02-02T06:25:33.190Z,94.30
2019-02-02T06:28:02.550Z,94.40
2019-02-02T06:30:31.864Z,94.40
2019-02-02T06:33:01.213Z,94.30
2019-02-02T06:35:30.541Z,94.30
2019-02-02T06:37:59.893Z,94.30
2019-02-02T06:40:29.205Z,94.30
2019-02-02T06:42:58.560Z,94.50
2019-02-02T06:45:30.013Z,94.50
2019-02-02T06:47:59.369Z,94.50
2019-02-02T06:50:28.677Z,94.50
2019-02-02T06:52:58.564Z,94.60
2019-02-02T06:55:27.872Z,94.60
2019-02-02T06:57:57.210Z,94.60
2019-02-02T07:00:27.863Z,94.60
2019-02-02T07:02:57.208Z,94.70
2019-02-02T07:05:26.523Z,94.70
2019-02-02T07:07:55.872Z,94.70
2019-02-02T07:10:27.135Z,94.80
2019-02-02T07:12:56.552Z,94.90
2019-02-02T07:15:30.262Z,94.80
2019-02-02T07:17:59.598Z,94.80
2019-02-02T07:20:28.908Z,94.60
2019-02-02T07:22:58.265Z,94.50
2019-02-02T07:25:27.574Z,94.40
2019-02-02T07:27:57.900Z,94.50
2019-02-02T07:30:29.089Z,94.40
2019-02-02T07:32:58.179Z,94.40
2019-02-02T07:35:27.484Z,94.30
2019-02-02T07:37:56.829Z,94.10
2019-02-02T07:40:26.209Z,94.00
2019-02-02T07:42:55.584Z,93.90
2019-02-02T07:45:29.629Z,93.90
2019-02-02T07:47:58.984Z,93.90
2019-02-02T07:50:28.286Z,93.90
2019-02-02T07:52:57.637Z,94.00
2019-02-02T07:55:26.944Z,93.90
2019-02-02T07:57:56.353Z,93.90
2019-02-02T08:00:40.685Z,93.90
2019-02-02T08:03:06.581Z,93.90
2019-02-02T08:05:35.885Z,93.90
2019-02-02T08:08:05.603Z,93.70
2019-02-02T08:10:34.905Z,93.70
2019-02-02T08:13:04.541Z,93.60
2019-02-02T08:15:34.089Z,93.60
2019-02-02T08:18:03.436Z,93.50
2019-02-02T08:20:32.734Z,93.30
2019-02-02T08:23:02.077Z,93.30
2019-02-02T08:25:31.380Z,93.20
2019-02-02T08:28:00.725Z,93.10
2019-02-02T08:30:35.316Z,93.10
2019-02-02T08:33:03.409Z,93.10
2019-02-02T08:35:32.713Z,93.10
2019-02-02T08:38:02.061Z,93.00
2019-02-02T08:40:31.365Z,93.00
2019-02-02T08:43:00.725Z,93.00
2019-02-02T08:45:30.030Z,93.20
2019-02-02T08:47:59.452Z,93.10
2019-02-02T08:50:34.352Z,93.20
2019-02-02T08:53:03.692Z,93.20
2019-02-02T08:55:33.287Z,93.30
2019-02-02T08:58:02.757Z,93.30
2019-02-02T09:00:32.062Z,93.30
2019-02-02T09:03:01.475Z,93.20
2019-02-02T09:05:30.857Z,93.40
2019-02-02T09:08:00.152Z,93.20
2019-02-02T09:10:29.773Z,93.20
2019-02-02T09:12:59.069Z,93.20
2019-02-02T09:15:28.417Z,93.20
2019-02-02T09:17:57.761Z,93.20
2019-02-02T09:20:27.109Z,93.10
2019-02-02T09:23:06.068Z,92.90
2019-02-02T09:25:28.362Z,92.90
2019-02-02T09:27:57.680Z,92.70
2019-02-02T09:30:29.864Z,92.70
2019-02-02T09:32:59.338Z,92.70
2019-02-02T09:35:28.689Z,92.70
2019-02-02T09:37:57.993Z,92.70
2019-02-02T09:40:27.347Z,92.70
2019-02-02T09:42:56.645Z,92.70
2019-02-02T09:45:25.997Z,92.70
2019-02-02T09:47:55.304Z,92.70
2019-02-02T09:50:26.085Z,92.60
2019-02-02T09:52:55.388Z,92.70
2019-02-02T09:55:26.373Z,92.70
2019-02-02T09:57:58.609Z,92.60
2019-02-02T10:00:30.467Z,92.50
2019-02-02T10:02:59.769Z,92.40
2019-02-02T10:05:30.056Z,92.30
2019-02-02T10:07:59.511Z,92.30
2019-02-02T10:10:30.654Z,92.20
2019-02-02T10:13:00.165Z,92.20
2019-02-02T10:15:29.513Z,92.20
2019-02-02T10:17:58.876Z,92.20
2019-02-02T10:20:30.046Z,92.30
2019-02-02T10:23:00.293Z,92.40
2019-02-02T10:25:30.968Z,92.50
2019-02-02T10:28:01.232Z,92.50
2019-02-02T10:30:33.173Z,92.50
2019-02-02T10:33:02.476Z,92.50
2019-02-02T10:35:31.825Z,92.60
2019-02-02T10:38:01.134Z,92.70
2019-02-02T10:40:30.517Z,92.60
2019-02-02T10:42:59.792Z,92.50
2019-02-02T10:45:29.130Z,92.60
2019-02-02T10:47:58.425Z,92.60
2019-02-02T10:50:27.772Z,92.60
2019-02-02T10:52:57.149Z,92.60
2019-02-02T10:55:26.497Z,92.60
2019-02-02T10:57:55.823Z,92.50
2019-02-02T11:00:30.372Z,92.40
2019-02-02T11:02:59.682Z,92.50
2019-02-02T11:05:29.066Z,92.60
2019-02-02T11:07:58.462Z,92.60
2019-02-02T11:10:29.658Z,92.60
2019-02-02T11:12:59.018Z,92.50
2019-02-02T11:15:28.432Z,92.30
2019-02-02T11:17:58.054Z,92.10
2019-02-02T11:20:29.632Z,92.00
2019-02-02T11:22:58.931Z,92.00
2019-02-02T11:25:28.420Z,91.80
2019-02-02T11:27:57.763Z,91.40
2019-02-02T11:30:27.313Z,91.40
2019-02-02T11:32:56.702Z,91.10
2019-02-02T11:35:26.066Z,90.90
2019-02-02T11:37:55.397Z,90.30
2019-02-02T11:40:30.807Z,90.00
2019-02-02T11:43:00.125Z,89.40
2019-02-02T11:45:29.470Z,88.20
2019-02-02T11:47:58.818Z,87.50
2019-02-02T11:50:28.122Z,87.30
2019-02-02T11:52:57.484Z,87.20
2019-02-02T11:55:28.121Z,87.30
2019-02-02T11:57:57.531Z,87.90
2019-02-02T12:00:29.333Z,88.20
2019-02-02T12:02:58.685Z,88.30
2019-02-02T12:05:27.992Z,88.40
2019-02-02T12:07:57.341Z,88.30
2019-02-02T12:10:31.307Z,88.80
2019-02-02T12:13:00.658Z,89.00
2019-02-02T12:15:30.030Z,89.20
2019-02-02T12:17:59.393Z,89.20
2019-02-02T12:20:29.712Z,89.20
2019-02-02T12:22:59.063Z,89.10
2019-02-02T12:25:28.364Z,89.30
2019-02-02T12:27:57.838Z,89.00
2019-02-02T12:30:31.925Z,88.90
2019-02-02T12:33:03.403Z,89.30
2019-02-02T12:35:32.188Z,89.20
2019-02-02T12:38:01.530Z,89.30
2019-02-02T12:40:30.829Z,89.10
2019-02-02T12:43:00.174Z,88.90
2019-02-02T12:45:38.346Z,88.50
2019-02-02T12:48:07.698Z,88.60
2019-02-02T12:50:37.001Z,88.60
2019-02-02T12:53:06.696Z,88.90
2019-02-02T12:55:35.993Z,89.20
2019-02-02T12:58:06.483Z,89.20
2019-02-02T13:00:35.785Z,89.50
2019-02-02T13:03:05.676Z,89.70
2019-02-02T13:05:34.977Z,90.00
2019-02-02T13:08:05.296Z,90.10
2019-02-02T13:10:35.094Z,90.30
2019-02-02T13:13:04.440Z,90.30
2019-02-02T13:15:33.742Z,89.90
2019-02-02T13:18:03.144Z,89.30
2019-02-02T13:20:32.453Z,89.10
2019-02-02T13:23:01.798Z,88.90
2019-02-02T13:25:31.100Z,88.20
2019-02-02T13:28:00.449Z,87.70
2019-02-02T13:30:32.345Z,87.30
2019-02-02T13:33:01.693Z,87.30
2019-02-02T13:35:33.337Z,87.30
2019-02-02T13:38:02.681Z,87.40
2019-02-02T13:40:31.996Z,87.60
2019-02-02T13:43:01.348Z,87.80
2019-02-02T13:45:31.721Z,88.00
2019-02-02T13:48:01.056Z,88.50
2019-02-02T13:50:30.356Z,88.60
2019-02-02T13:52:59.701Z,88.80
2019-02-02T13:55:28.996Z,89.00
2019-02-02T13:57:58.338Z,89.50
2019-02-02T14:00:29.781Z,89.50
2019-02-02T14:03:03.673Z,89.60
2019-02-02T14:05:30.063Z,89.30
2019-02-02T14:08:00.238Z,88.30
2019-02-02T14:10:32.302Z,88.90
2019-02-02T14:13:01.674Z,89.40
2019-02-02T14:15:30.967Z,89.90
2019-02-02T14:18:00.309Z,90.00
2019-02-02T14:20:30.720Z,90.10
2019-02-02T14:23:00.064Z,90.20
2019-02-02T14:25:29.365Z,90.40
2019-02-02T14:27:58.721Z,90.50
2019-02-02T14:30:28.030Z,90.60
2019-02-02T14:32:57.527Z,90.30
2019-02-02T14:35:27.871Z,90.40
2019-02-02T14:37:57.234Z,90.40
2019-02-02T14:40:26.541Z,90.50
2019-02-02T14:42:55.844Z,90.60
2019-02-02T14:45:27.566Z,90.50
2019-02-02T14:47:56.790Z,90.30
2019-02-02T14:50:26.132Z,90.00
2019-02-02T14:52:55.441Z,89.30
2019-02-02T14:55:27.389Z,89.40
2019-02-02T14:57:56.719Z,89.70
2019-02-02T15:00:27.699Z,89.50
2019-02-02T15:02:57.257Z,89.40
2019-02-02T15:05:26.584Z,89.80
2019-02-02T15:07:55.888Z,90.10
2019-02-02T15:10:25.245Z,90.30
2019-02-02T15:12:54.673Z,90.40
2019-02-02T15:15:23.997Z,90.70
2019-02-02T15:17:53.311Z,91.20
2019-02-02T15:20:31.349Z,91.00
2019-02-02T15:23:00.640Z,91.30
2019-02-02T15:25:29.982Z,91.20
2019-02-02T15:27:59.282Z,91.20
2019-02-02T15:30:34.184Z,91.20
2019-02-02T15:33:03.742Z,91.20
2019-02-02T15:35:33.117Z,91.20
2019-02-02T15:38:02.395Z,91.40
2019-02-02T15:40:32.419Z,91.50
2019-02-02T15:43:01.724Z,91.70
2019-02-02T15:45:32.129Z,91.70
2019-02-02T15:48:01.441Z,91.90
2019-02-02T15:50:30.847Z,91.80
2019-02-02T15:53:00.145Z,91.90
2019-02-02T15:55:29.590Z,91.90
2019-02-02T15:57:58.898Z,92.00
2019-02-02T16:00:30.178Z,92.10
2019-02-02T16:02:59.486Z,92.00
2019-02-02T16:05:29.307Z,92.10
2019-02-02T16:08:00.542Z,92.10
2019-02-02T16:10:32.561Z,92.10
2019-02-02T16:13:01.874Z,92.10
2019-02-02T16:15:34.123Z,92.20
2019-02-02T16:18:02.184Z,92.20
2019-02-02T16:20:34.585Z,92.30
2019-02-02T16:23:04.149Z,92.40
2019-02-02T16:25:33.514Z,92.30
2019-02-02T16:28:02.830Z,92.30
2019-02-02T16:30:32.180Z,92.40
2019-02-02T16:33:01.491Z,92.50
2019-02-02T16:35:30.849Z,92.60
2019-02-02T16:38:00.160Z,92.70
2019-02-02T16:40:30.577Z,92.60
2019-02-02T16:42:59.889Z,92.50
2019-02-02T16:45:30.986Z,92.40
2019-02-02T16:48:00.288Z,92.50
2019-02-02T16:50:29.717Z,92.70
2019-02-02T16:52:59.240Z,92.80
2019-02-02T16:55:28.621Z,92.80
2019-02-02T16:57:57.873Z,92.90
2019-02-02T17:00:32.477Z,92.60
2019-02-02T17:03:01.789Z,92.50
2019-02-02T17:05:31.196Z,92.60
2019-02-02T17:08:00.586Z,92.70
2019-02-02T17:10:32.530Z,92.80
2019-02-02T17:13:01.841Z,92.80
2019-02-02T17:15:31.223Z,93.00
2019-02-02T17:18:00.514Z,93.00
2019-02-02T17:20:38.808Z,93.10
2019-02-02T17:23:08.116Z,93.00
2019-02-02T17:25:37.790Z,93.00
2019-02-02T17:28:07.365Z,93.00
2019-02-02T17:30:36.717Z,92.80
2019-02-02T17:33:08.405Z,92.70
2019-02-02T17:35:38.121Z,92.60
2019-02-02T17:38:07.825Z,92.70
2019-02-02T17:40:37.165Z,92.80
2019-02-02T17:43:06.516Z,92.90
2019-02-02T17:45:35.864Z,92.90
2019-02-02T17:48:05.764Z,92.70
2019-02-02T17:50:35.074Z,92.60
2019-02-02T17:53:04.480Z,92.70
2019-02-02T17:55:33.742Z,92.60
2019-02-02T17:58:03.097Z,92.60
2019-02-02T18:00:36.481Z,92.70
2019-02-02T18:03:05.934Z,92.70
2019-02-02T18:05:35.250Z,92.80
2019-02-02T18:08:05.147Z,92.80
2019-02-02T18:10:34.530Z,92.90
2019-02-02T18:13:03.889Z,92.80
2019-02-02T18:15:33.218Z,92.70
2019-02-02T18:18:02.713Z,92.70
2019-02-02T18:20:32.038Z,92.70
2019-02-02T18:23:01.394Z,93.00
2019-02-02T18:25:30.700Z,92.70
2019-02-02T18:28:00.061Z,92.80
2019-02-02T18:30:29.367Z,92.90
2019-02-02T18:32:58.721Z,92.90
2019-02-02T18:35:28.033Z,92.60
2019-02-02T18:37:57.461Z,92.70
2019-02-02T18:40:26.774Z,92.70
2019-02-02T18:42:56.125Z,92.80
2019-02-02T18:45:27.634Z,92.90
2019-02-02T18:47:56.992Z,92.90
2019-02-02T18:50:26.798Z,92.80
2019-02-02T18:52:58.854Z,92.90
2019-02-02T18:55:31.305Z,93.20
2019-02-02T18:58:00.666Z,93.60
2019-02-02T19:00:29.973Z,93.60
2019-02-02T19:02:59.329Z,93.10
2019-02-02T19:05:29.163Z,93.10
2019-02-02T19:07:59.756Z,93.30
2019-02-02T19:10:32.327Z,93.40
2019-02-02T19:13:01.677Z,93.60
2019-02-02T19:15:30.978Z,93.60
2019-02-02T19:18:03.324Z,93.60
2019-02-02T19:20:31.373Z,93.30
2019-02-02T19:23:00.792Z,93.40
2019-02-02T19:25:30.213Z,93.40
2019-02-02T19:27:59.565Z,93.40
2019-02-02T19:30:31.805Z,93.40
2019-02-02T19:33:01.113Z,93.50
2019-02-02T19:35:30.461Z,93.40
2019-02-02T19:37:59.765Z,93.50
2019-02-02T19:40:29.109Z,93.50
2019-02-02T19:42:58.540Z,93.60
2019-02-02T19:45:28.594Z,93.80
2019-02-02T19:47:57.909Z,94.00
2019-02-02T19:50:30.898Z,94.00
2019-02-02T19:53:00.270Z,93.90
2019-02-02T19:55:29.684Z,93.90
2019-02-02T19:57:58.989Z,93.80
2019-02-02T20:00:30.938Z,93.70
2019-02-02T20:03:00.546Z,93.50
2019-02-02T20:05:30.078Z,93.40
2019-02-02T20:07:59.387Z,93.40
2019-02-02T20:10:28.845Z,93.30
2019-02-02T20:12:58.170Z,93.20
2019-02-02T20:15:27.958Z,93.10
2019-02-02T20:18:08.943Z,93.10
2019-02-02T20:20:29.013Z,92.90
2019-02-02T20:22:58.392Z,92.80
2019-02-02T20:25:27.756Z,92.80
2019-02-02T20:27:57.066Z,92.80
2019-02-02T20:30:29.119Z,92.70
2019-02-02T20:32:58.416Z,92.60
2019-02-02T20:35:39.698Z,92.60
2019-02-02T20:37:59.949Z,92.50
2019-02-02T20:40:29.301Z,92.50
2019-02-02T20:42:58.613Z,92.40
2019-02-02T20:45:36.861Z,92.20
2019-02-02T20:48:07.291Z,92.10
2019-02-02T20:50:38.274Z,92.00
2019-02-02T20:53:09.222Z,92.00
2019-02-02T20:55:41.615Z,92.00
2019-02-02T20:58:10.919Z,91.90
2019-02-02T21:00:40.807Z,91.90
2019-02-02T21:03:13.505Z,92.20
2019-02-02T21:05:52.004Z,91.90
2019-02-02T21:08:15.048Z,91.80
2019-02-02T21:10:44.686Z,91.90
2019-02-02T21:13:14.121Z,91.90
2019-02-02T21:15:43.681Z,91.90
2019-02-02T21:18:13.949Z,92.00
2019-02-02T21:20:43.302Z,92.00
2019-02-02T21:23:12.684Z,92.00
2019-02-02T21:25:42.109Z,92.10
2019-02-02T21:28:11.633Z,91.90
2019-02-02T21:30:41.061Z,91.80
2019-02-02T21:33:10.378Z,91.90
2019-02-02T21:35:42.291Z,92.00
2019-02-02T21:38:11.765Z,92.00
2019-02-02T21:40:41.318Z,92.00
2019-02-02T21:43:10.630Z,92.00
2019-02-02T21:45:40.098Z,92.10
2019-02-02T21:48:09.629Z,92.00
2019-02-02T21:50:39.029Z,92.00
2019-02-02T21:53:08.343Z,92.00
2019-02-02T21:55:37.708Z,91.90
2019-02-02T21:58:07.262Z,91.70
2019-02-02T22:00:38.700Z,91.70
2019-02-02T22:03:08.144Z,91.70
2019-02-02T22:05:37.449Z,91.60
2019-02-02T22:08:07.170Z,91.70
2019-02-02T22:10:36.484Z,91.70
2019-02-02T22:13:05.981Z,91.60
2019-02-02T22:15:36.912Z,91.50
2019-02-02T22:18:06.277Z,91.50
2019-02-02T22:20:35.585Z,91.60
2019-02-02T22:23:04.941Z,91.60
2019-02-02T22:25:34.331Z,91.60
2019-02-02T22:28:03.688Z,91.80
2019-02-02T22:30:36.429Z,92.10
2019-02-02T22:33:06.594Z,92.20
2019-02-02T22:35:35.897Z,92.40
2019-02-02T22:38:05.258Z,92.60
2019-02-02T22:40:34.710Z,92.50
2019-02-02T22:43:04.096Z,92.50
2019-02-02T22:45:33.477Z,92.50
2019-02-02T22:48:02.835Z,92.50
2019-02-02T22:50:32.414Z,92.40
2019-02-02T22:53:01.842Z,92.40
2019-02-02T22:55:31.129Z,92.30
2019-02-02T22:58:00.510Z,92.30
2019-02-02T23:00:43.349Z,92.20
2019-02-02T23:03:19.368Z,92.20
2019-02-02T23:06:02.635Z,92.20
2019-02-02T23:08:47.313Z,92.10
2019-02-02T23:11:19.889Z,92.10
2019-02-02T23:14:07.340Z,92.10
2019-02-02T23:16:36.844Z,92.00
2019-02-02T23:19:06.565Z,92.00
2019-02-02T23:21:35.933Z,91.90
2019-02-02T23:24:05.281Z,91.90
2019-02-02T23:26:34.602Z,91.90
2019-02-02T23:29:03.946Z,91.90
2019-02-02T23:31:33.253Z,91.70
2019-02-02T23:34:02.623Z,91.70
2019-02-02T23:36:31.937Z,91.70
2019-02-02T23:39:01.317Z,91.70
2019-02-02T23:41:32.248Z,91.70
2019-02-02T23:44:01.615Z,91.70
2019-02-02T23:46:30.926Z,91.70
2019-02-02T23:49:00.346Z,91.60
2019-02-02T23:51:29.697Z,91.50
2019-02-02T23:53:59.001Z,91.50
2019-02-02T23:56:28.549Z,91.60
2019-02-02T23:58:57.863Z,91.60
